Terminal Aerodrome Forecast
Issued by NWS Pocatello, ID

Home | Current Version | Previous Version | Text Only | Print | Product List | Glossary On
Versions: 1 2 3 4 5 6 7 8 9 10 11 12
000
FTUS45 KPIH 062300
TAFBYI
TAF
KBYI 062320Z 0700/0724 26008KT P6SM FEW200
     FM070200 VRB05KT P6SM SKC
     FM071800 26008KT P6SM BKN200=

USA.gov is the U.S. government's official web portal to all federal, state and local government web resources and services.